createdAt,value
2018-09-09T00:03:18.452Z,18.80
2018-09-09T00:13:23.000Z,18.80
2018-09-09T00:23:27.696Z,18.80
2018-09-09T00:33:32.299Z,18.80
2018-09-09T00:43:37.996Z,18.80
2018-09-09T00:53:43.434Z,18.70
2018-09-09T01:03:48.638Z,18.70
2018-09-09T01:13:53.249Z,18.70
2018-09-09T01:23:57.899Z,18.70
2018-09-09T01:34:02.649Z,18.70
2018-09-09T01:44:07.516Z,18.70
2018-09-09T01:54:13.076Z,18.70
2018-09-09T02:04:18.606Z,18.70
2018-09-09T02:14:23.149Z,18.70
2018-09-09T02:24:29.137Z,18.70
2018-09-09T02:34:33.773Z,18.70
2018-09-09T02:44:39.580Z,18.70
2018-09-09T02:54:44.213Z,18.70
2018-09-09T03:04:48.869Z,18.60
2018-09-09T03:14:53.528Z,18.60
2018-09-09T03:24:58.396Z,18.60
2018-09-09T03:35:04.127Z,18.60
2018-09-09T03:45:08.859Z,18.60
2018-09-09T03:55:14.531Z,18.60
2018-09-09T04:05:19.148Z,18.60
2018-09-09T04:15:23.684Z,18.60
2018-09-09T04:25:28.466Z,18.60
2018-09-09T04:35:33.015Z,18.60
2018-09-09T04:45:37.548Z,18.60
2018-09-09T04:55:42.339Z,18.60
2018-09-09T05:05:47.080Z,18.60
2018-09-09T05:15:52.009Z,18.50
2018-09-09T05:25:56.785Z,18.60
2018-09-09T05:36:01.456Z,18.50
2018-09-09T05:46:06.000Z,18.50
2018-09-09T05:56:10.692Z,18.50
2018-09-09T06:06:16.391Z,18.50
2018-09-09T06:16:21.185Z,18.50
2018-09-09T06:26:26.006Z,18.50
2018-09-09T06:36:30.685Z,18.50
2018-09-09T06:46:35.661Z,18.50
2018-09-09T06:56:40.529Z,18.40
2018-09-09T07:06:45.288Z,18.50
2018-09-09T07:16:50.871Z,18.50
2018-09-09T07:26:56.051Z,18.50
2018-09-09T07:37:01.774Z,18.40
2018-09-09T07:47:06.569Z,18.40
2018-09-09T07:57:11.124Z,18.40
2018-09-09T08:07:15.663Z,18.40
2018-09-09T08:17:20.392Z,18.40
2018-09-09T08:27:25.020Z,18.40
2018-09-09T08:37:29.755Z,18.40
2018-09-09T08:47:34.319Z,18.40
2018-09-09T08:57:39.224Z,18.40
2018-09-09T09:07:44.028Z,18.40
2018-09-09T09:17:48.548Z,18.30
2018-09-09T09:27:53.435Z,18.30
2018-09-09T09:37:58.205Z,18.40
2018-09-09T09:48:02.794Z,18.40
2018-09-09T16:18:13.014Z,18.90
2018-09-09T16:28:18.663Z,18.90
2018-09-09T16:38:23.483Z,18.90
2018-09-09T16:48:28.223Z,18.90
2018-09-09T16:58:32.790Z,18.90
2018-09-09T17:08:37.423Z,18.90
2018-09-09T17:18:42.207Z,18.90
2018-09-09T17:28:47.069Z,19.00
2018-09-09T17:38:51.715Z,19.00
2018-09-09T17:48:56.383Z,19.00
2018-09-09T17:59:01.153Z,19.00
2018-09-09T18:09:08.461Z,19.00
2018-09-09T18:19:13.093Z,19.00
2018-09-09T18:29:17.844Z,18.90
2018-09-09T18:39:22.495Z,18.90
2018-09-09T18:49:27.230Z,18.90
2018-09-09T18:59:31.832Z,18.90
2018-09-09T19:09:36.372Z,18.90
2018-09-09T19:19:41.045Z,18.90
2018-09-09T19:29:45.585Z,18.90
2018-09-09T19:39:50.227Z,18.90
2018-09-09T19:49:54.976Z,18.90
2018-09-09T19:59:59.539Z,18.90
2018-09-09T20:10:04.081Z,18.90
2018-09-09T20:20:08.732Z,18.90
2018-09-09T20:30:13.386Z,18.90
2018-09-09T20:40:18.010Z,18.90
2018-09-09T20:50:23.351Z,18.90
2018-09-09T21:00:27.931Z,18.90
2018-09-09T21:10:32.537Z,18.90
2018-09-09T21:20:37.184Z,18.90
2018-09-09T21:30:41.772Z,18.90
2018-09-09T21:40:46.451Z,18.90
2018-09-09T21:50:51.104Z,18.90
2018-09-09T22:01:01.016Z,18.90
2018-09-09T22:11:05.627Z,18.90
2018-09-09T22:21:10.296Z,18.90
2018-09-09T22:31:14.880Z,18.90
2018-09-09T22:41:19.692Z,18.90
2018-09-09T22:51:24.255Z,18.90
2018-09-09T23:01:29.028Z,18.90
2018-09-09T23:11:34.698Z,18.90
2018-09-09T23:21:39.249Z,18.90
2018-09-09T23:31:43.836Z,18.90
2018-09-09T23:41:48.568Z,18.80
2018-09-09T23:51:54.303Z,18.80
